Time;durP1;ratioP1;P1;durP2;ratioP2;P2;SDS_P1;SDS_P2;PMS_P1;PMS_P2;Temp;Humidity;BMP_temperature;BMP_pressure;BME280_temperature;BME280_humidity;BME280_pressure;Samples;Min_cycle;Max_cycle;Signal;HPM_P1;HPM_P2
2022/03/08 00:01:03;;;;;;;116.65;58.58;;;;;;;-1.37;67.56;94358.44;1514130;92;21031;-50
2022/03/08 00:03:30;;;;;;;103.25;53.35;;;;;;;-1.44;67.81;94361.13;1523780;92;21079;-52
2022/03/08 00:05:57;;;;;;;92.92;48.78;;;;;;;-1.36;67.80;94362.70;1525345;92;21222;-51
2022/03/08 00:08:26;;;;;;;80.70;43.02;;;;;;;-1.33;67.62;94357.30;1523183;91;21220;-51
2022/03/08 00:10:54;;;;;;;80.75;45.98;;;;;;;-1.33;67.68;94360.00;1507459;92;21121;-52
2022/03/08 00:13:22;;;;;;;78.50;43.83;;;;;;;-1.31;67.51;94356.93;1523979;92;21607;-53
2022/03/08 00:15:51;;;;;;;68.95;40.67;;;;;;;-1.34;67.77;94352.30;1522225;92;21087;-51
2022/03/08 00:18:18;;;;;;;69.40;41.63;;;;;;;-1.20;67.60;94357.71;1524663;92;21193;-52
2022/03/08 00:20:46;;;;;;;76.50;42.85;;;;;;;-1.10;67.36;94359.67;1524568;92;21126;-54
2022/03/08 00:23:13;;;;;;;79.87;44.58;;;;;;;-0.99;67.22;94365.28;1534256;91;21667;-51
2022/03/08 00:25:41;;;;;;;81.30;41.90;;;;;;;-0.85;67.29;94361.83;1526369;92;21758;-52
2022/03/08 00:28:08;;;;;;;84.45;45.12;;;;;;;-0.72;66.66;94366.48;1524970;92;21161;-52
2022/03/08 00:30:36;;;;;;;86.42;44.63;;;;;;;-0.64;66.42;94365.89;1524667;92;21607;-52
2022/03/08 00:33:05;;;;;;;84.00;46.90;;;;;;;-0.65;65.95;94360.30;1522993;92;21008;-55
2022/03/08 00:35:33;;;;;;;84.22;46.80;;;;;;;-0.67;66.32;94358.56;1525290;92;21515;-51
2022/03/08 00:38:02;;;;;;;78.42;44.40;;;;;;;-0.59;66.12;94358.78;1525818;92;21558;-51
2022/03/08 00:40:31;;;;;;;66.12;38.28;;;;;;;-0.56;65.53;94359.34;1526074;92;21645;-52
2022/03/08 00:43:01;;;;;;;55.38;33.40;;;;;;;-0.66;65.38;94360.10;1532599;91;21192;-51
2022/03/08 00:45:28;;;;;;;57.35;33.95;;;;;;;-0.81;65.49;94358.58;1524672;92;21113;-52
2022/03/08 00:47:55;;;;;;;59.98;34.53;;;;;;;-0.91;65.58;94353.36;1525341;92;21007;-51
2022/03/08 00:50:25;;;;;;;81.75;42.98;;;;;;;-1.00;65.90;94346.79;1524364;92;21661;-51
2022/03/08 00:52:52;;;;;;;68.15;36.65;;;;;;;-1.09;65.89;94355.82;1524630;92;21074;-50
2022/03/08 00:55:20;;;;;;;66.60;35.40;;;;;;;-1.09;66.51;94363.92;1523969;92;21868;-49
2022/03/08 00:57:49;;;;;;;74.45;39.10;;;;;;;-0.99;66.14;94359.13;1525474;93;21704;-51
2022/03/08 01:00:19;;;;;;;66.85;37.38;;;;;;;-0.95;66.09;94353.91;1531894;92;21510;-51
2022/03/08 01:02:47;;;;;;;76.67;38.88;;;;;;;-0.90;66.17;94355.47;1523688;92;21039;-52
2022/03/08 01:05:15;;;;;;;108.63;53.30;;;;;;;-0.90;66.20;94350.06;1523634;92;21067;-51
2022/03/08 01:07:42;;;;;;;113.52;54.38;;;;;;;-0.81;66.57;94348.53;1521820;92;21261;-51
2022/03/08 01:10:15;;;;;;;127.27;58.73;;;;;;;-0.74;66.25;94358.57;1524756;91;21079;-52
2022/03/08 01:12:44;;;;;;;115.00;55.70;;;;;;;-0.80;65.92;94354.72;1531575;93;21127;-52
2022/03/08 01:15:11;;;;;;;116.08;56.95;;;;;;;-0.91;66.22;94357.97;1517049;92;21070;-53
2022/03/08 01:17:42;;;;;;;71.53;40.20;;;;;;;-0.84;66.19;94352.01;1547277;91;21132;-50
2022/03/08 01:20:10;;;;;;;69.25;41.25;;;;;;;-0.89;66.12;94354.31;1523963;92;21345;-53
2022/03/08 01:22:38;;;;;;;74.67;43.38;;;;;;;-0.88;66.01;94349.89;1524437;92;21610;-57
2022/03/08 01:25:07;;;;;;;68.75;39.48;;;;;;;-0.91;65.97;94343.13;1521835;92;21060;-53
2022/03/08 01:27:34;;;;;;;58.98;35.83;;;;;;;-0.94;66.10;94347.95;1524858;92;21034;-51
2022/03/08 01:30:05;;;;;;;73.28;36.73;;;;;;;-0.99;66.12;94337.54;1524425;92;21115;-52
2022/03/08 01:32:32;;;;;;;71.97;39.00;;;;;;;-1.08;66.34;94341.95;1525324;92;21137;-52
2022/03/08 01:34:59;;;;;;;70.32;38.80;;;;;;;-1.15;66.48;94340.58;1525774;91;21071;-54
2022/03/08 01:37:26;;;;;;;66.77;41.00;;;;;;;-1.20;66.67;94334.78;1527216;92;21114;-51
2022/03/08 01:39:54;;;;;;;90.47;46.40;;;;;;;-1.13;67.14;94336.16;1527660;91;21030;-51
2022/03/08 01:42:24;;;;;;;89.05;49.13;;;;;;;-1.06;67.42;94335.59;1524568;92;21074;-52
2022/03/08 01:44:51;;;;;;;97.17;50.80;;;;;;;-0.93;67.66;94327.30;1524350;92;21130;-52
2022/03/08 01:47:22;;;;;;;99.90;51.58;;;;;;;-0.75;67.22;94335.43;1524011;92;21099;-59
2022/03/08 01:49:50;;;;;;;103.70;53.40;;;;;;;-0.66;67.22;94329.83;1525490;93;21554;-51
2022/03/08 01:52:20;;;;;;;94.90;51.70;;;;;;;-0.52;66.85;94333.89;1523579;92;21034;-52
2022/03/08 01:54:48;;;;;;;98.20;52.58;;;;;;;-0.46;66.37;94337.73;1520322;92;21051;-52
2022/03/08 01:57:16;;;;;;;99.77;50.98;;;;;;;-0.46;66.07;94325.58;1524870;92;22002;-51
2022/03/08 01:59:43;;;;;;;99.28;52.20;;;;;;;-0.45;66.50;94333.12;1523220;92;21015;-51
2022/03/08 02:02:10;;;;;;;99.00;49.33;;;;;;;-0.36;66.28;94329.42;1523906;92;21111;-52
2022/03/08 02:04:38;;;;;;;83.78;44.67;;;;;;;-0.39;65.96;94325.56;1525657;92;21225;-52
2022/03/08 02:07:07;;;;;;;81.05;45.75;;;;;;;-0.47;65.98;94327.30;1522797;92;20992;-53
2022/03/08 02:09:36;;;;;;;83.50;44.70;;;;;;;-0.59;65.83;94320.97;1482221;95;21026;-54
2022/03/08 02:12:05;;;;;;;81.92;44.35;;;;;;;-0.73;66.13;94326.36;1480410;95;21050;-51
2022/03/08 02:14:33;;;;;;;87.10;47.38;;;;;;;-0.79;66.33;94327.91;1524656;93;21044;-53
2022/03/08 02:17:00;;;;;;;85.77;46.30;;;;;;;-0.81;66.50;94323.48;1523244;92;21159;-53
2022/03/08 02:19:28;;;;;;;80.92;43.15;;;;;;;-0.85;66.71;94319.98;1524432;93;21024;-52
2022/03/08 02:21:56;;;;;;;76.45;45.25;;;;;;;-0.87;66.94;94323.65;1523491;92;21194;-54
2022/03/08 02:24:23;;;;;;;87.95;48.15;;;;;;;-0.86;67.30;94321.14;1524182;91;21536;-51
2022/03/08 02:26:51;;;;;;;81.72;45.45;;;;;;;-0.80;67.31;94322.31;1521819;93;21131;-53
2022/03/08 02:29:19;;;;;;;67.67;40.50;;;;;;;-0.81;67.05;94318.08;1524322;92;21133;-53
2022/03/08 02:31:47;;;;;;;68.60;38.05;;;;;;;-0.86;67.12;94321.14;1519578;92;21146;-51
2022/03/08 02:34:15;;;;;;;64.35;38.08;;;;;;;-0.84;67.35;94326.92;1523369;92;21143;-50
2022/03/08 02:36:59;;;;;;;64.05;37.58;;;;;;;-0.80;67.42;94325.77;1524712;92;21110;-52
2022/03/08 02:39:26;;;;;;;61.20;36.15;;;;;;;-0.85;67.13;94314.58;1529622;91;21436;-51
2022/03/08 02:41:53;;;;;;;81.53;46.18;;;;;;;-0.99;67.48;94320.00;1515370;93;21188;-52
2022/03/08 02:44:21;;;;;;;88.27;48.38;;;;;;;-1.09;67.92;94318.83;1517073;92;21060;-52
2022/03/08 02:46:50;;;;;;;66.72;39.90;;;;;;;-1.05;68.59;94320.16;1514214;92;21190;-51
2022/03/08 02:49:18;;;;;;;65.60;35.40;;;;;;;-0.90;68.82;94324.42;1514849;92;21049;-52
2022/03/08 02:51:46;;;;;;;56.83;33.90;;;;;;;-0.81;68.22;94320.78;1517152;92;21170;-52
2022/03/08 02:54:14;;;;;;;40.98;27.15;;;;;;;-0.90;68.33;94323.86;1516520;92;21114;-51
2022/03/08 02:56:42;;;;;;;61.48;37.45;;;;;;;-1.02;68.57;94328.27;1514623;92;21091;-51
2022/03/08 02:59:10;;;;;;;64.30;36.13;;;;;;;-1.10;69.18;94324.59;1528432;92;21165;-54
2022/03/08 03:01:37;;;;;;;37.50;25.97;;;;;;;-1.10;69.26;94321.89;1515520;92;21182;-50
2022/03/08 03:04:05;;;;;;;47.40;28.60;;;;;;;-1.09;69.51;94326.14;1514711;92;21125;-54
2022/03/08 03:06:35;;;;;;;44.65;25.23;;;;;;;-1.05;69.91;94321.51;1519107;92;21110;-50
2022/03/08 03:09:02;;;;;;;40.58;25.57;;;;;;;-0.96;69.94;94328.08;1515921;92;21122;-51
2022/03/08 03:11:30;;;;;;;45.03;26.33;;;;;;;-0.87;69.77;94322.30;1520174;93;22323;-53
2022/03/08 03:13:58;;;;;;;34.88;22.25;;;;;;;-0.90;69.58;94321.72;1522119;92;21011;-51
2022/03/08 03:16:27;;;;;;;34.78;23.47;;;;;;;-0.95;69.75;94331.56;1519232;92;21572;-52
2022/03/08 03:18:55;;;;;;;43.80;28.55;;;;;;;-0.96;70.18;94321.33;1521209;92;21147;-50
2022/03/08 03:21:22;;;;;;;55.65;30.27;;;;;;;-0.87;70.33;94327.70;1527494;92;21527;-52
2022/03/08 03:23:52;;;;;;;47.55;28.05;;;;;;;-0.75;70.28;94334.08;1514344;92;21503;-51
2022/03/08 03:26:19;;;;;;;36.55;23.52;;;;;;;-0.62;70.07;94327.14;1514551;92;21106;-52
2022/03/08 03:28:48;;;;;;;40.67;25.90;;;;;;;-0.57;69.54;94327.50;1515930;92;21167;-52
2022/03/08 03:31:15;;;;;;;53.30;29.52;;;;;;;-0.61;69.70;94330.03;1515744;92;21190;-52
2022/03/08 03:33:43;;;;;;;61.33;32.05;;;;;;;-0.61;69.94;94328.69;1514293;92;21618;-52
2022/03/08 03:36:10;;;;;;;34.92;22.45;;;;;;;-0.59;69.63;94331.77;1515207;92;21313;-54
2022/03/08 03:38:38;;;;;;;39.40;25.52;;;;;;;-0.70;69.49;94330.42;1515970;92;21000;-52
2022/03/08 03:41:05;;;;;;;42.23;24.65;;;;;;;-0.79;69.59;94322.52;1512448;94;21920;-53
2022/03/08 03:43:34;;;;;;;48.02;27.95;;;;;;;-0.85;69.77;94325.38;1511658;92;21071;-52
2022/03/08 03:46:01;;;;;;;40.43;25.80;;;;;;;-0.96;69.99;94318.62;1523233;92;21522;-53
2022/03/08 03:48:29;;;;;;;59.80;34.20;;;;;;;-1.04;70.20;94320.35;1518471;93;21218;-52
2022/03/08 03:50:56;;;;;;;65.03;34.35;;;;;;;-1.05;70.67;94325.55;1523044;92;21107;-56
2022/03/08 03:53:24;;;;;;;60.58;32.03;;;;;;;-1.00;71.00;94330.59;1524514;92;21035;-52
2022/03/08 03:55:52;;;;;;;59.25;31.15;;;;;;;-0.93;70.89;94328.66;1524599;92;21138;-50
2022/03/08 03:58:20;;;;;;;51.92;30.50;;;;;;;-0.89;70.93;94325.96;1519853;92;21614;-49
2022/03/08 04:00:47;;;;;;;63.38;34.20;;;;;;;-0.84;70.90;94330.97;1517362;92;21239;-53
2022/03/08 04:03:15;;;;;;;70.87;39.48;;;;;;;-0.76;71.18;94335.98;1515116;92;21165;-51
2022/03/08 04:05:43;;;;;;;77.55;43.08;;;;;;;-0.61;70.99;94337.55;1514359;92;21051;-52
2022/03/08 04:08:12;;;;;;;64.45;39.78;;;;;;;-0.48;71.14;94336.56;1515865;92;21055;-55
2022/03/08 04:10:39;;;;;;;75.05;44.83;;;;;;;-0.36;70.71;94334.27;1514534;92;21152;-52
2022/03/08 04:13:08;;;;;;;69.95;40.85;;;;;;;-0.25;70.65;94329.59;1516459;92;21859;-52
2022/03/08 04:15:35;;;;;;;60.08;36.63;;;;;;;-0.18;70.12;94331.52;1513862;92;21472;-52
2022/03/08 04:18:03;;;;;;;69.37;41.18;;;;;;;-0.19;69.93;94331.33;1516315;93;21190;-52
2022/03/08 04:20:30;;;;;;;64.97;38.30;;;;;;;-0.24;70.06;94325.73;1514776;92;21048;-52
2022/03/08 04:22:58;;;;;;;80.03;46.65;;;;;;;-0.18;70.17;94326.12;1516806;92;21198;-53
2022/03/08 04:25:26;;;;;;;69.12;41.40;;;;;;;-0.20;69.64;94323.80;1514983;92;21156;-52
2022/03/08 04:27:53;;;;;;;81.70;46.77;;;;;;;-0.21;70.03;94325.55;1524106;92;21133;-53
2022/03/08 04:30:20;;;;;;;63.65;37.73;;;;;;;-0.19;70.04;94328.03;1513372;92;21140;-52
2022/03/08 04:32:50;;;;;;;59.67;37.98;;;;;;;-0.18;69.36;94322.85;1523122;92;21240;-54
2022/03/08 04:35:18;;;;;;;63.23;37.80;;;;;;;-0.27;69.39;94325.17;1523549;92;21112;-53
2022/03/08 04:37:46;;;;;;;72.25;43.83;;;;;;;-0.34;69.56;94322.48;1509343;92;21855;-54
2022/03/08 04:40:13;;;;;;;79.35;46.25;;;;;;;-0.26;69.95;94316.50;1525295;92;21052;-57
2022/03/08 04:42:41;;;;;;;80.92;43.83;;;;;;;-0.20;69.64;94317.63;1528576;92;21658;-52
2022/03/08 04:45:10;;;;;;;69.82;41.10;;;;;;;-0.18;69.68;94318.02;1528391;91;21233;-53
2022/03/08 04:47:38;;;;;;;86.15;45.25;;;;;;;-0.12;69.42;94324.55;1548597;90;20980;-53
2022/03/08 04:50:08;;;;;;;69.58;40.58;;;;;;;-0.17;69.38;94316.84;1529940;92;21185;-54
2022/03/08 04:52:35;;;;;;;125.35;55.90;;;;;;;-0.31;69.24;94310.11;1525323;92;21467;-60
2022/03/08 04:55:04;;;;;;;100.72;51.63;;;;;;;-0.42;69.71;94316.13;1528107;92;21542;-52
2022/03/08 04:57:33;;;;;;;77.37;46.00;;;;;;;-0.41;70.19;94315.72;1524866;92;21729;-51
2022/03/08 05:00:00;;;;;;;84.45;49.38;;;;;;;-0.28;70.53;94316.09;1524445;92;21075;-52
2022/03/08 05:02:29;;;;;;;90.90;50.40;;;;;;;-0.12;70.41;94317.80;1518883;92;21095;-52
2022/03/08 05:04:57;;;;;;;88.70;49.35;;;;;;;-0.06;69.66;94327.83;1513170;91;21129;-53
2022/03/08 05:07:24;;;;;;;97.60;51.15;;;;;;;-0.09;69.81;94331.31;1519900;92;21016;-52
2022/03/08 05:09:51;;;;;;;90.80;48.98;;;;;;;-0.03;70.01;94333.05;1538765;91;21067;-60
2022/03/08 05:12:18;;;;;;;146.22;68.95;;;;;;;-0.02;69.57;94325.88;1541509;91;21614;-53
2022/03/08 05:14:47;;;;;;;112.28;58.92;;;;;;;-0.12;69.48;94327.25;1547121;90;21256;-55
2022/03/08 05:17:14;;;;;;;109.87;57.00;;;;;;;-0.25;69.82;94328.84;1540183;90;21044;-53
2022/03/08 05:19:41;;;;;;;109.67;54.83;;;;;;;-0.29;70.03;94341.56;1527912;91;21087;-53
2022/03/08 05:22:10;;;;;;;93.50;50.08;;;;;;;-0.37;70.33;94335.98;1545762;91;21134;-54
2022/03/08 05:24:38;;;;;;;95.20;55.10;;;;;;;-0.49;70.50;94335.03;1529389;91;21169;-52
2022/03/08 05:27:06;;;;;;;83.27;53.78;;;;;;;-0.59;70.93;94339.87;1522370;93;21817;-53
2022/03/08 05:29:34;;;;;;;95.50;56.10;;;;;;;-0.60;71.65;94341.03;1519558;93;21020;-53
2022/03/08 05:32:02;;;;;;;88.70;51.95;;;;;;;-0.45;71.80;94341.22;1524297;93;21099;-53
2022/03/08 05:34:30;;;;;;;81.65;47.55;;;;;;;-0.31;71.76;94343.89;1522065;92;21115;-52
2022/03/08 05:36:58;;;;;;;92.30;51.92;;;;;;;-0.30;70.97;94339.46;1520476;93;21011;-53
2022/03/08 05:39:25;;;;;;;77.08;45.65;;;;;;;-0.49;71.02;94345.83;1523418;92;21171;-52
2022/03/08 05:41:53;;;;;;;96.02;54.15;;;;;;;-0.63;71.20;94352.61;1522154;92;21232;-52
2022/03/08 05:44:20;;;;;;;85.30;49.45;;;;;;;-0.68;71.81;94344.87;1523414;92;21132;-55
2022/03/08 05:46:48;;;;;;;98.10;55.33;;;;;;;-0.69;71.98;94344.67;1524338;92;21187;-54
2022/03/08 05:49:16;;;;;;;102.32;59.30;;;;;;;-0.71;72.01;94348.34;1524244;92;21055;-57
2022/03/08 05:51:44;;;;;;;117.80;66.00;;;;;;;-0.71;72.48;94344.30;1524176;92;21752;-53
2022/03/08 05:54:11;;;;;;;118.95;67.17;;;;;;;-0.61;72.60;94363.20;1522251;92;21090;-53
2022/03/08 05:56:38;;;;;;;119.90;65.25;;;;;;;-0.50;72.21;94357.80;1512049;93;21023;-53
2022/03/08 05:59:06;;;;;;;100.18;59.23;;;;;;;-0.36;72.48;94359.15;1501588;95;21138;-53
2022/03/08 06:01:33;;;;;;;102.05;50.80;;;;;;;-0.22;71.79;94359.14;1502988;95;21550;-54
2022/03/08 06:04:02;;;;;;;96.97;49.45;;;;;;;-0.13;71.53;94352.17;1504266;92;21042;-52
2022/03/08 06:06:29;;;;;;;87.42;50.63;;;;;;;-0.06;71.04;94366.27;1547284;90;21003;-55
2022/03/08 06:08:59;;;;;;;83.33;48.00;;;;;;;0.00;71.16;94367.59;1519057;90;21056;-55
2022/03/08 06:11:26;;;;;;;77.40;45.17;;;;;;;0.13;70.84;94359.83;1515944;92;21091;-55
2022/03/08 06:13:54;;;;;;;81.55;47.33;;;;;;;0.20;70.28;94367.35;1541179;90;21494;-53
2022/03/08 06:16:23;;;;;;;94.00;53.30;;;;;;;0.26;70.43;94375.25;1534919;90;21301;-54
2022/03/08 06:18:55;;;;;;;112.68;52.80;;;;;;;0.40;70.44;94375.80;1516271;92;21078;-53
2022/03/08 06:21:21;;;;;;;104.27;50.35;;;;;;;0.54;69.95;94368.97;1521088;92;21071;-53
2022/03/08 06:23:49;;;;;;;79.82;44.03;;;;;;;0.58;69.37;94374.56;1506424;93;21110;-54
2022/03/08 06:26:16;;;;;;;91.10;53.23;;;;;;;0.51;69.33;94381.94;1513346;92;22379;-55
2022/03/08 06:28:43;;;;;;;93.42;54.48;;;;;;;0.47;69.46;94378.48;1514106;93;21152;-55
2022/03/08 06:31:11;;;;;;;84.83;48.40;;;;;;;0.48;69.36;94380.80;1518219;92;21132;-55
2022/03/08 06:33:38;;;;;;;106.95;60.33;;;;;;;0.54;69.27;94382.50;1524768;92;21111;-56
2022/03/08 06:36:06;;;;;;;98.80;57.00;;;;;;;0.51;69.07;94384.08;1523741;92;21214;-56
2022/03/08 06:38:33;;;;;;;135.75;75.87;;;;;;;0.55;69.00;94386.78;1528442;92;21051;-54
2022/03/08 06:41:00;;;;;;;102.38;60.70;;;;;;;0.48;69.19;94386.22;1527861;93;21250;-56
2022/03/08 06:43:28;;;;;;;136.85;80.15;;;;;;;0.59;69.36;94388.28;1516803;91;21112;-55
2022/03/08 06:45:56;;;;;;;126.47;73.70;;;;;;;0.73;69.22;94389.59;1544528;90;21613;-53
2022/03/08 06:48:23;;;;;;;121.72;73.00;;;;;;;0.88;68.75;94388.36;1547615;92;21070;-53
2022/03/08 06:50:51;;;;;;;131.63;75.80;;;;;;;0.93;68.62;94392.00;1543055;90;21046;-53
2022/03/08 06:53:18;;;;;;;117.20;64.37;;;;;;;1.04;68.39;94391.37;1475126;95;21123;-55
2022/03/08 06:55:45;;;;;;;119.70;66.05;;;;;;;1.04;67.59;94399.50;1460161;95;21014;-55
2022/03/08 06:58:12;;;;;;;127.58;72.03;;;;;;;1.07;67.89;94393.86;1457933;95;21077;-57
2022/03/08 07:00:40;;;;;;;110.03;63.50;;;;;;;1.28;67.59;94399.19;1479716;94;21111;-53
2022/03/08 07:03:09;;;;;;;90.60;54.00;;;;;;;1.40;67.20;94396.78;1488221;95;21069;-52
2022/03/08 07:05:38;;;;;;;83.15;50.25;;;;;;;1.40;66.77;94395.99;1488007;94;21119;-54
2022/03/08 07:08:06;;;;;;;79.35;47.80;;;;;;;1.45;66.29;94394.99;1483954;95;21018;-58
2022/03/08 07:10:34;;;;;;;77.78;48.00;;;;;;;1.57;65.70;94390.47;1535258;90;21135;-62
2022/03/08 07:13:01;;;;;;;95.38;54.00;;;;;;;1.64;64.88;94401.25;1535579;90;21169;-56
2022/03/08 07:15:29;;;;;;;89.40;54.15;;;;;;;1.68;64.53;94399.87;1526025;92;21570;-58
2022/03/08 07:17:56;;;;;;;54.77;34.23;;;;;;;1.79;64.35;94396.66;1536106;92;21167;-58
2022/03/08 07:20:24;;;;;;;39.65;25.02;;;;;;;2.01;63.34;94393.98;1541753;90;21131;-57
2022/03/08 07:22:51;;;;;;;46.48;28.32;;;;;;;2.20;62.18;94400.20;1532016;90;21140;-56
2022/03/08 07:25:20;;;;;;;18.37;12.50;;;;;;;2.34;61.31;94401.99;1519417;92;21568;-56
2022/03/08 07:27:49;;;;;;;13.83;9.80;;;;;;;2.51;60.12;94396.97;1524333;92;21109;-57
2022/03/08 07:30:17;;;;;;;12.15;9.10;;;;;;;2.69;58.69;94400.27;1520926;92;21273;-59
2022/03/08 07:32:45;;;;;;;10.35;7.72;;;;;;;2.89;57.95;94394.40;1524423;93;21035;-59
2022/03/08 07:35:14;;;;;;;8.48;7.67;;;;;;;2.99;56.95;94398.34;1527961;90;21075;-58
2022/03/08 07:37:43;;;;;;;45.40;29.20;;;;;;;3.07;56.53;94396.31;1546362;90;21431;-58
2022/03/08 07:40:12;;;;;;;52.43;33.42;;;;;;;3.24;56.16;94397.42;1538526;92;21060;-57
2022/03/08 07:42:41;;;;;;;42.73;26.75;;;;;;;3.38;55.53;94390.44;1529723;92;21133;-57
2022/03/08 07:45:09;;;;;;;24.05;16.55;;;;;;;3.46;54.51;94389.15;1531836;91;21424;-61
2022/03/08 07:47:39;;;;;;;15.30;9.60;;;;;;;3.47;53.64;94384.50;1546896;90;21584;-59
2022/03/08 07:50:09;;;;;;;18.55;13.83;;;;;;;3.48;52.10;94392.83;1545877;92;21202;-58
2022/03/08 07:52:38;;;;;;;26.20;16.97;;;;;;;3.40;51.95;94387.33;1524365;92;21113;-57
2022/03/08 07:55:08;;;;;;;29.25;18.15;;;;;;;3.36;51.87;94389.30;1547339;91;21878;-57
2022/03/08 07:57:35;;;;;;;27.00;17.12;;;;;;;3.33;52.17;94394.20;1547003;90;21035;-56
2022/03/08 08:00:06;;;;;;;27.95;16.60;;;;;;;3.30;52.78;94390.95;1546551;91;21035;-57
2022/03/08 08:02:36;;;;;;;37.35;18.80;;;;;;;3.40;53.13;94385.97;1540902;92;21040;-60
2022/03/08 08:05:04;;;;;;;168.70;114.85;;;;;;;3.46;53.07;94382.95;1546061;92;21105;-58
2022/03/08 08:07:34;;;;;;;90.28;72.17;;;;;;;3.49;52.62;94389.11;1532580;92;21249;-60
2022/03/08 08:10:03;;;;;;;55.23;39.55;;;;;;;3.59;51.82;94387.41;1539704;91;21051;-56
2022/03/08 08:12:32;;;;;;;45.33;29.15;;;;;;;3.60;51.89;94395.17;1522458;92;21166;-59
2022/03/08 08:14:59;;;;;;;20.68;15.45;;;;;;;3.58;52.49;94402.97;1529616;91;21054;-61
2022/03/08 08:17:28;;;;;;;16.95;12.65;;;;;;;3.62;51.62;94408.34;1522684;92;21162;-55
2022/03/08 08:19:57;;;;;;;11.12;8.95;;;;;;;3.61;51.00;94397.28;1523738;92;21262;-58
2022/03/08 08:22:24;;;;;;;16.20;12.58;;;;;;;3.55;50.72;94394.25;1523788;94;21870;-58
2022/03/08 08:24:52;;;;;;;13.38;9.85;;;;;;;3.60;51.32;94387.02;1540115;92;21094;-60
2022/03/08 08:27:22;;;;;;;13.43;10.65;;;;;;;3.86;50.54;94384.84;1529817;92;21760;-58
2022/03/08 08:29:50;;;;;;;14.07;9.85;;;;;;;4.04;49.73;94390.77;1525179;92;21151;-59
2022/03/08 08:32:20;;;;;;;13.22;9.98;;;;;;;4.16;49.84;94382.03;1528769;92;21209;-61
2022/03/08 08:34:48;;;;;;;16.85;12.80;;;;;;;4.19;49.79;94380.41;1526335;92;20996;-58
2022/03/08 08:37:17;;;;;;;15.85;11.35;;;;;;;4.08;49.69;94385.28;1535999;92;21021;-58
2022/03/08 08:39:46;;;;;;;25.48;16.73;;;;;;;3.85;50.03;94377.12;1514856;92;21052;-58
2022/03/08 08:42:15;;;;;;;12.40;11.10;;;;;;;3.54;50.33;94387.28;1527657;92;21059;-61
2022/03/08 08:44:44;;;;;;;32.10;19.82;;;;;;;3.28;50.94;94387.27;1532206;92;21333;-59
2022/03/08 08:47:13;;;;;;;12.15;9.45;;;;;;;3.02;52.34;94395.41;1536845;90;21055;-57
2022/03/08 08:49:42;;;;;;;9.68;8.65;;;;;;;2.75;54.04;94402.70;1530670;92;21158;-62
2022/03/08 08:52:11;;;;;;;35.40;25.00;;;;;;;2.48;55.37;94407.28;1529455;90;21103;-58
2022/03/08 08:54:39;;;;;;;13.98;11.48;;;;;;;2.30;57.01;94422.37;1537849;90;21077;-59
2022/03/08 08:57:08;;;;;;;27.42;21.70;;;;;;;2.23;57.66;94410.81;1532655;92;21132;-57
2022/03/08 08:59:35;;;;;;;11.63;9.98;;;;;;;2.16;58.72;94421.14;1545537;91;21193;-57
2022/03/08 09:02:04;;;;;;;22.70;16.00;;;;;;;2.03;60.08;94432.89;1537165;90;21103;-57
2022/03/08 09:04:33;;;;;;;15.30;12.25;;;;;;;1.84;61.22;94429.36;1534178;90;21086;-58
2022/03/08 09:07:01;;;;;;;12.10;9.28;;;;;;;1.72;62.35;94430.43;1534675;90;21110;-61
2022/03/08 09:09:29;;;;;;;15.18;12.47;;;;;;;1.73;63.39;94433.33;1548487;91;21106;-55
2022/03/08 09:11:58;;;;;;;12.45;10.48;;;;;;;1.80;64.17;94442.19;1533893;91;21714;-61
2022/03/08 09:14:26;;;;;;;15.85;11.97;;;;;;;1.88;64.42;94439.59;1543431;90;21107;-61
2022/03/08 09:16:53;;;;;;;16.07;11.53;;;;;;;1.82;64.84;94435.77;1534453;91;21496;-59
2022/03/08 09:19:22;;;;;;;18.15;12.28;;;;;;;1.88;65.08;94434.17;1540810;92;21119;-56
2022/03/08 09:21:50;;;;;;;16.07;12.05;;;;;;;1.89;65.02;94433.78;1530001;92;22046;-57
2022/03/08 09:24:18;;;;;;;18.82;12.45;;;;;;;1.99;65.00;94434.87;1551125;90;21130;-58
2022/03/08 09:26:45;;;;;;;20.57;13.85;;;;;;;2.19;64.67;94428.50;1524839;92;21156;-60
2022/03/08 09:29:13;;;;;;;16.30;11.15;;;;;;;2.48;63.99;94431.72;1525832;93;21566;-59
2022/03/08 09:31:42;;;;;;;12.07;10.58;;;;;;;2.98;62.75;94422.61;1531889;93;21638;-57
2022/03/08 09:34:09;;;;;;;9.65;8.63;;;;;;;3.49;60.92;94420.98;1520878;92;22099;-60
2022/03/08 09:36:37;;;;;;;14.20;10.50;;;;;;;3.96;59.08;94409.77;1529870;92;21350;-57
2022/03/08 09:39:05;;;;;;;13.85;10.53;;;;;;;4.52;57.39;94412.11;1547122;91;21024;-57
2022/03/08 09:41:32;;;;;;;12.40;9.08;;;;;;;4.94;56.06;94410.73;1533680;91;21082;-59
2022/03/08 09:44:00;;;;;;;13.15;9.65;;;;;;;5.15;54.09;94409.55;1529945;92;21609;-57
2022/03/08 09:46:27;;;;;;;22.02;13.75;;;;;;;5.16;52.54;94415.94;1522960;93;21159;-57
2022/03/08 09:48:55;;;;;;;28.35;18.37;;;;;;;4.86;52.02;94418.88;1520556;92;21074;-57
2022/03/08 09:51:23;;;;;;;19.82;13.98;;;;;;;4.59;51.55;94422.30;1524290;92;21551;-56
2022/03/08 09:53:56;;;;;;;21.25;16.20;;;;;;;4.47;51.83;94418.83;1556403;90;21503;-59
2022/03/08 09:56:21;;;;;;;15.90;12.35;;;;;;;4.41;53.12;94430.61;1548103;90;21138;-57
2022/03/08 09:58:48;;;;;;;17.77;12.53;;;;;;;4.30;51.45;94429.44;1544968;91;21284;-57
2022/03/08 10:01:16;;;;;;;19.27;11.03;;;;;;;4.08;51.80;94428.22;1527610;92;21082;-60
2022/03/08 10:03:44;;;;;;;16.12;12.65;;;;;;;4.01;52.49;94428.34;1537600;92;21648;-59
2022/03/08 10:06:11;;;;;;;13.55;11.00;;;;;;;3.96;51.57;94436.98;1543023;91;21047;-58
2022/03/08 10:08:40;;;;;;;12.37;11.03;;;;;;;3.88;51.70;94439.61;1526975;92;21113;-57
2022/03/08 10:11:11;;;;;;;10.50;9.38;;;;;;;3.98;51.51;94446.86;1534625;92;21172;-57
2022/03/08 10:13:43;;;;;;;;;;;;;;;3.90;51.24;94439.22;1539132;92;21004;-56
2022/03/08 10:16:23;;;;;;;13.70;9.78;;;;;;;3.75;51.83;94445.47;1527981;92;20498;-57
2022/03/08 10:18:53;;;;;;;13.93;10.48;;;;;;;3.60;52.17;94448.20;1522704;91;21765;-58
2022/03/08 10:21:33;;;;;;;11.70;9.48;;;;;;;3.59;52.47;94443.95;1530762;92;21150;-58
2022/03/08 10:24:21;;;;;;;14.95;10.98;;;;;;;3.56;52.68;94456.22;1525672;92;21627;-60
2022/03/08 10:27:05;;;;;;;11.40;9.23;;;;;;;3.77;53.20;94445.82;1530705;92;21081;-58
2022/03/08 10:29:36;;;;;;;15.25;11.65;;;;;;;4.84;51.36;94440.34;1526807;91;21586;-58
2022/03/08 10:32:16;;;;;;;12.10;9.25;;;;;;;5.95;48.58;94435.11;1521597;92;21119;-59
2022/03/08 10:34:40;;;;;;;20.00;12.10;;;;;;;6.87;47.75;94441.22;1521684;90;21137;-56
2022/03/08 10:37:14;;;;;;;9.78;7.33;;;;;;;7.53;43.89;94436.02;1527973;90;21954;-59
2022/03/08 10:39:51;;;;;;;8.23;7.42;;;;;;;8.03;42.68;94434.72;1531013;91;21059;-57
2022/03/08 10:42:20;;;;;;;8.60;6.72;;;;;;;8.10;42.14;94425.52;1537876;90;21381;-57
2022/03/08 10:44:49;;;;;;;11.48;8.65;;;;;;;8.66;40.53;94429.96;1550848;90;21117;-59
2022/03/08 10:47:19;;;;;;;9.63;8.08;;;;;;;9.22;39.58;94426.68;1554026;90;21046;-57
2022/03/08 10:49:56;;;;;;;11.93;8.30;;;;;;;9.79;37.60;94428.89;1544669;91;21938;-56
2022/03/08 10:52:34;;;;;;;10.30;7.37;;;;;;;10.19;38.27;94426.36;1531162;92;22076;-58
2022/03/08 10:55:22;;;;;;;7.72;6.40;;;;;;;10.20;37.45;94424.39;1527743;92;21098;-58
2022/03/08 10:57:56;;;;;;;8.55;6.72;;;;;;;9.66;38.02;94428.20;1538683;91;21453;-57
2022/03/08 11:00:26;;;;;;;9.28;7.12;;;;;;;8.89;39.42;94428.22;1542286;90;21123;-59
2022/03/08 11:02:56;;;;;;;9.83;6.92;;;;;;;8.10;39.92;94413.94;1538023;92;21882;-57
2022/03/08 11:05:30;;;;;;;12.85;9.00;;;;;;;7.46;41.14;94412.97;1544465;91;21531;-56
2022/03/08 11:07:58;;;;;;;8.53;7.55;;;;;;;7.10;42.05;94417.91;1542684;91;21030;-58
2022/03/08 11:10:27;;;;;;;13.43;8.40;;;;;;;6.90;42.27;94414.38;1544163;92;21130;-56
2022/03/08 11:12:55;;;;;;;11.95;9.13;;;;;;;6.85;41.68;94406.71;1529295;92;21123;-57
2022/03/08 11:15:24;;;;;;;9.95;8.43;;;;;;;6.80;41.95;94412.09;1527652;91;22015;-61
2022/03/08 11:17:53;;;;;;;20.32;16.75;;;;;;;7.14;40.55;94401.41;1514783;93;21096;-57
2022/03/08 11:20:23;;;;;;;12.53;10.72;;;;;;;8.02;40.01;94400.31;1530969;91;21536;-58
2022/03/08 11:22:53;;;;;;;10.78;8.03;;;;;;;9.48;38.92;94397.88;1549091;91;21159;-56
2022/03/08 11:25:21;;;;;;;18.30;10.65;;;;;;;10.29;36.13;94392.20;1538801;92;21142;-58
2022/03/08 11:27:49;;;;;;;10.05;6.72;;;;;;;10.16;35.98;94379.79;1535212;92;21135;-57